createdAt,value
2023-04-15T00:00:39.558Z,94798.00
2023-04-15T00:01:39.247Z,94797.00
2023-04-15T00:02:38.711Z,94795.00
2023-04-15T00:03:38.418Z,94795.00
2023-04-15T00:04:38.671Z,94793.00
2023-04-15T00:05:38.903Z,94791.00
2023-04-15T00:06:37.985Z,94791.00
2023-04-15T00:07:37.945Z,94789.00
2023-04-15T00:08:37.920Z,94789.00
2023-04-15T00:09:37.930Z,94787.00
2023-04-15T00:10:37.953Z,94787.00
2023-04-15T00:11:37.989Z,94783.00
2023-04-15T00:12:38.211Z,94781.00
2023-04-15T00:13:38.121Z,94783.00
2023-04-15T00:14:38.192Z,94781.00
2023-04-15T00:15:38.228Z,94779.00
2023-04-15T00:16:38.329Z,94775.00
2023-04-15T00:17:38.411Z,94773.00
2023-04-15T00:18:38.438Z,94775.00
2023-04-15T00:19:38.474Z,94775.00
2023-04-15T00:20:38.317Z,94775.00
2023-04-15T00:21:39.466Z,94775.00
2023-04-15T00:22:39.764Z,94771.00
2023-04-15T00:23:39.779Z,94771.00
2023-04-15T00:24:39.734Z,94773.00
2023-04-15T00:25:38.652Z,94773.00
2023-04-15T00:26:38.652Z,94773.00
2023-04-15T00:27:39.883Z,94771.00
2023-04-15T00:28:40.474Z,94771.00
2023-04-15T00:29:39.562Z,94771.00
2023-04-15T00:30:38.313Z,94773.00
2023-04-15T00:31:39.963Z,94775.00
2023-04-15T00:32:39.665Z,94773.00
2023-04-15T00:33:39.547Z,94775.00
2023-04-15T00:34:39.757Z,94773.00
2023-04-15T00:35:37.940Z,94773.00
2023-04-15T00:36:37.891Z,94771.00
2023-04-15T00:37:37.867Z,94771.00
2023-04-15T00:38:38.890Z,94769.00
2023-04-15T00:39:38.898Z,94769.00
2023-04-15T00:40:38.918Z,94769.00
2023-04-15T00:41:38.846Z,94767.00
2023-04-15T00:42:38.829Z,94767.00
2023-04-15T00:43:38.802Z,94769.00
2023-04-15T00:44:37.816Z,94769.00
2023-04-15T00:45:37.836Z,94767.00
2023-04-15T00:46:38.808Z,94765.00
2023-04-15T00:47:38.822Z,94765.00
2023-04-15T00:48:37.794Z,94763.00
2023-04-15T00:49:39.826Z,94763.00
2023-04-15T00:50:39.288Z,94765.00
2023-04-15T00:51:39.423Z,94765.00
2023-04-15T00:52:39.611Z,94765.00
2023-04-15T00:53:39.367Z,94765.00
2023-04-15T00:54:39.348Z,94765.00
2023-04-15T00:55:39.659Z,94769.00
2023-04-15T00:56:40.798Z,94765.00
2023-04-15T00:57:38.238Z,94767.00
2023-04-15T00:58:39.781Z,94765.00
2023-04-15T00:59:39.813Z,94767.00
2023-04-15T01:00:39.450Z,94767.00
2023-04-15T01:01:39.333Z,94767.00
2023-04-15T01:02:38.381Z,94765.00
2023-04-15T01:03:39.461Z,94765.00
2023-04-15T01:04:39.461Z,94763.00
2023-04-15T01:05:39.480Z,94763.00
2023-04-15T01:06:39.557Z,94765.00
2023-04-15T01:07:39.619Z,94765.00
2023-04-15T01:08:38.659Z,94767.00
2023-04-15T01:09:38.723Z,94767.00
2023-04-15T01:10:38.775Z,94769.00
2023-04-15T01:11:39.850Z,94771.00
2023-04-15T01:12:38.912Z,94773.00
2023-04-15T01:13:38.984Z,94773.00
2023-04-15T01:14:40.032Z,94773.00
2023-04-15T01:15:39.111Z,94775.00
2023-04-15T01:16:39.152Z,94773.00
2023-04-15T01:17:40.281Z,94769.00
2023-04-15T01:18:39.267Z,94767.00
2023-04-15T01:19:39.359Z,94767.00
2023-04-15T01:20:39.376Z,94765.00
2023-04-15T01:21:40.458Z,94767.00
2023-04-15T01:22:40.508Z,94767.00
2023-04-15T01:23:39.575Z,94765.00
2023-04-15T01:24:40.627Z,94765.00
2023-04-15T01:25:40.714Z,94765.00
2023-04-15T01:26:41.025Z,94765.00
2023-04-15T01:27:40.835Z,94763.00
2023-04-15T01:28:40.915Z,94763.00
2023-04-15T01:29:40.958Z,94763.00
2023-04-15T01:30:41.573Z,94761.00
2023-04-15T01:31:42.086Z,94761.00
2023-04-15T01:32:41.063Z,94763.00
2023-04-15T01:33:41.692Z,94761.00
2023-04-15T01:34:40.254Z,94757.00
2023-04-15T01:35:41.325Z,94757.00
2023-04-15T01:36:41.378Z,94759.00
2023-04-15T01:37:41.442Z,94761.00
2023-04-15T01:38:41.504Z,94761.00
2023-04-15T01:39:41.548Z,94761.00
2023-04-15T01:40:41.632Z,94761.00
2023-04-15T01:41:40.704Z,94763.00
2023-04-15T01:42:40.816Z,94761.00
2023-04-15T01:43:40.784Z,94759.00
2023-04-15T01:44:41.884Z,94761.00
2023-04-15T01:45:40.914Z,94761.00
2023-04-15T01:46:41.008Z,94765.00
2023-04-15T01:47:41.038Z,94761.00
2023-04-15T01:48:41.072Z,94761.00
2023-04-15T01:49:41.122Z,94765.00
2023-04-15T01:50:42.176Z,94767.00
2023-04-15T01:51:42.252Z,94767.00
2023-04-15T01:52:42.356Z,94765.00
2023-04-15T01:53:42.308Z,94763.00
2023-04-15T01:54:42.348Z,94763.00
2023-04-15T01:55:42.382Z,94763.00
2023-04-15T01:56:41.452Z,94761.00
2023-04-15T01:57:42.491Z,94757.00
2023-04-15T01:58:42.559Z,94759.00
2023-04-15T01:59:42.610Z,94759.00
2023-04-15T02:00:42.727Z,94757.00
2023-04-15T02:01:41.725Z,94755.00
2023-04-15T02:02:42.978Z,94753.00
2023-04-15T02:03:43.047Z,94753.00
2023-04-15T02:04:41.887Z,94753.00
2023-04-15T02:05:42.997Z,94753.00
2023-04-15T02:06:42.971Z,94751.00
2023-04-15T02:07:42.048Z,94753.00
2023-04-15T02:08:42.114Z,94753.00
2023-04-15T02:09:43.116Z,94747.00
2023-04-15T02:10:42.156Z,94746.00
2023-04-15T02:11:42.164Z,94744.00
2023-04-15T02:12:42.185Z,94742.00
2023-04-15T02:13:43.216Z,94740.00
2023-04-15T02:14:42.241Z,94738.00
2023-04-15T02:15:43.381Z,94738.00
2023-04-15T02:16:43.360Z,94738.00
2023-04-15T02:17:43.368Z,94736.00
2023-04-15T02:18:43.413Z,94734.00
2023-04-15T02:19:43.442Z,94734.00
2023-04-15T02:20:43.504Z,94730.00
2023-04-15T02:21:42.556Z,94732.00
2023-04-15T02:22:43.591Z,94730.00
2023-04-15T02:23:42.656Z,94730.00
2023-04-15T02:24:43.688Z,94734.00
2023-04-15T02:25:43.720Z,94736.00
2023-04-15T02:26:43.744Z,94738.00
2023-04-15T02:27:42.701Z,94742.00
2023-04-15T02:28:43.692Z,94742.00
2023-04-15T02:29:42.679Z,94742.00
2023-04-15T02:30:44.314Z,94744.00
2023-04-15T02:31:44.228Z,94746.00
2023-04-15T02:32:44.259Z,94744.00
2023-04-15T02:33:44.884Z,94744.00
2023-04-15T02:34:44.642Z,94746.00
2023-04-15T02:35:43.858Z,94744.00
2023-04-15T02:36:43.826Z,94746.00
2023-04-15T02:37:50.868Z,94747.00
2023-04-15T02:38:43.971Z,94751.00
2023-04-15T02:39:44.525Z,94749.00
2023-04-15T02:40:44.003Z,94749.00
2023-04-15T02:41:44.192Z,94751.00
2023-04-15T02:42:44.295Z,94751.00
2023-04-15T02:43:44.394Z,94749.00
2023-04-15T02:44:45.961Z,94749.00
2023-04-15T02:45:45.518Z,94751.00
2023-04-15T02:46:52.476Z,94747.00
2023-04-15T02:47:45.092Z,94751.00
2023-04-15T02:48:44.796Z,94753.00
2023-04-15T02:49:45.482Z,94755.00
2023-04-15T02:50:45.401Z,94755.00
2023-04-15T02:51:43.977Z,94755.00
2023-04-15T02:52:45.238Z,94751.00
2023-04-15T02:53:45.061Z,94751.00
2023-04-15T02:54:45.645Z,94747.00
2023-04-15T02:55:45.000Z,94753.00
2023-04-15T02:56:45.460Z,94747.00
2023-04-15T02:57:45.424Z,94749.00
2023-04-15T02:58:45.856Z,94751.00
2023-04-15T02:59:45.326Z,94751.00
2023-04-15T03:00:45.320Z,94749.00
2023-04-15T03:01:44.001Z,94747.00
2023-04-15T03:02:45.679Z,94744.00
2023-04-15T03:03:45.803Z,94747.00
2023-04-15T03:04:44.852Z,94747.00
2023-04-15T03:05:46.163Z,94744.00
2023-04-15T03:06:44.051Z,94746.00
2023-04-15T03:07:45.071Z,94747.00
2023-04-15T03:08:45.038Z,94751.00
2023-04-15T03:09:45.790Z,94751.00
2023-04-15T03:10:44.594Z,94747.00
2023-04-15T03:11:44.748Z,94753.00
2023-04-15T03:12:45.746Z,94753.00
2023-04-15T03:13:46.398Z,94749.00
2023-04-15T03:14:44.426Z,94747.00
2023-04-15T03:15:45.029Z,94746.00
2023-04-15T03:16:44.982Z,94744.00
2023-04-15T03:17:44.004Z,94744.00
2023-04-15T03:18:44.980Z,94744.00
2023-04-15T03:19:44.944Z,94742.00
2023-04-15T03:20:45.018Z,94742.00
2023-04-15T03:21:44.943Z,94744.00
2023-04-15T03:22:43.928Z,94746.00
2023-04-15T03:23:44.907Z,94746.00
2023-04-15T03:24:44.906Z,94744.00
2023-04-15T03:25:43.898Z,94746.00
2023-04-15T03:26:43.890Z,94747.00
2023-04-15T03:27:44.900Z,94746.00
2023-04-15T03:28:43.882Z,94746.00
2023-04-15T03:29:44.892Z,94747.00
2023-04-15T03:30:44.882Z,94746.00
2023-04-15T03:31:44.853Z,94747.00
2023-04-15T03:32:43.882Z,94751.00
2023-04-15T03:33:44.842Z,94751.00
2023-04-15T03:34:44.838Z,94751.00
2023-04-15T03:35:43.831Z,94751.00
2023-04-15T03:36:44.843Z,94755.00
2023-04-15T03:37:44.848Z,94753.00
2023-04-15T03:38:43.808Z,94753.00
2023-04-15T03:39:43.796Z,94755.00
2023-04-15T03:40:44.784Z,94753.00
2023-04-15T03:41:44.795Z,94751.00
2023-04-15T03:42:44.778Z,94753.00
2023-04-15T03:43:43.780Z,94753.00
2023-04-15T03:44:44.753Z,94753.00
2023-04-15T03:45:43.747Z,94751.00
2023-04-15T03:46:44.748Z,94751.00
2023-04-15T03:47:44.765Z,94751.00
2023-04-15T03:48:44.750Z,94751.00
2023-04-15T03:49:43.712Z,94751.00
2023-04-15T03:50:43.714Z,94751.00
2023-04-15T03:51:44.701Z,94751.00
2023-04-15T03:52:44.893Z,94749.00
2023-04-15T03:53:44.740Z,94751.00
2023-04-15T03:54:44.695Z,94751.00
2023-04-15T03:55:44.688Z,94751.00
2023-04-15T03:56:44.672Z,94751.00
2023-04-15T03:57:44.808Z,94749.00
2023-04-15T03:58:43.693Z,94751.00
2023-04-15T03:59:44.676Z,94753.00
2023-04-15T04:00:44.642Z,94751.00
2023-04-15T04:01:44.422Z,94749.00
2023-04-15T04:02:45.772Z,94755.00
2023-04-15T04:03:45.070Z,94751.00
2023-04-15T04:04:44.505Z,94755.00
2023-04-15T04:05:45.722Z,94753.00
2023-04-15T04:06:45.765Z,94755.00
2023-04-15T04:07:45.469Z,94755.00
2023-04-15T04:08:45.249Z,94755.00
2023-04-15T04:09:45.702Z,94757.00
2023-04-15T04:10:44.411Z,94755.00
2023-04-15T04:11:45.643Z,94755.00
2023-04-15T04:12:45.747Z,94755.00
2023-04-15T04:13:44.558Z,94753.00
2023-04-15T04:14:45.649Z,94753.00
2023-04-15T04:15:45.362Z,94753.00
2023-04-15T04:16:45.777Z,94757.00
2023-04-15T04:17:45.040Z,94755.00
2023-04-15T04:18:46.005Z,94759.00
2023-04-15T04:19:45.680Z,94759.00
2023-04-15T04:20:45.068Z,94759.00
2023-04-15T04:21:44.038Z,94759.00
2023-04-15T04:22:45.031Z,94759.00
2023-04-15T04:23:44.053Z,94755.00
2023-04-15T04:24:44.084Z,94755.00
2023-04-15T04:25:45.030Z,94757.00
2023-04-15T04:26:44.051Z,94759.00
2023-04-15T04:27:45.603Z,94761.00
2023-04-15T04:28:45.952Z,94763.00
2023-04-15T04:29:45.710Z,94761.00
2023-04-15T04:30:45.826Z,94763.00
2023-04-15T04:31:45.609Z,94763.00
2023-04-15T04:32:46.005Z,94763.00
2023-04-15T04:33:44.999Z,94763.00
2023-04-15T04:34:45.078Z,94765.00
2023-04-15T04:35:45.169Z,94765.00
2023-04-15T04:36:46.609Z,94765.00
2023-04-15T04:37:45.892Z,94763.00
2023-04-15T04:38:45.725Z,94765.00
2023-04-15T04:39:44.942Z,94767.00
2023-04-15T04:40:45.447Z,94767.00
2023-04-15T04:41:44.449Z,94767.00
2023-04-15T04:42:45.435Z,94769.00
2023-04-15T04:43:45.429Z,94769.00
2023-04-15T04:44:44.430Z,94769.00
2023-04-15T04:45:44.445Z,94769.00
2023-04-15T04:46:44.427Z,94771.00
2023-04-15T04:47:44.474Z,94771.00
2023-04-15T04:48:47.051Z,94765.00
2023-04-15T04:49:44.413Z,94771.00
2023-04-15T04:50:45.412Z,94769.00
2023-04-15T04:51:44.401Z,94769.00
2023-04-15T04:52:45.377Z,94777.00
2023-04-15T04:53:45.428Z,94769.00
2023-04-15T04:54:44.364Z,94771.00
2023-04-15T04:55:44.354Z,94769.00
2023-04-15T04:56:45.388Z,94771.00
2023-04-15T04:57:44.389Z,94773.00
2023-04-15T04:58:44.343Z,94771.00
2023-04-15T04:59:44.338Z,94773.00
2023-04-15T05:00:44.328Z,94771.00
2023-04-15T05:01:45.414Z,94771.00
2023-04-15T05:02:45.385Z,94773.00
2023-04-15T05:03:44.391Z,94771.00
2023-04-15T05:04:45.342Z,94771.00
2023-04-15T05:05:45.443Z,94771.00
2023-04-15T05:06:45.306Z,94775.00
2023-04-15T05:07:45.303Z,94775.00
2023-04-15T05:08:45.291Z,94775.00
2023-04-15T05:09:45.282Z,94775.00
2023-04-15T05:10:45.263Z,94773.00
2023-04-15T05:11:45.262Z,94777.00
2023-04-15T05:12:46.072Z,94777.00
2023-04-15T05:13:45.879Z,94777.00
2023-04-15T05:14:46.378Z,94773.00
2023-04-15T05:15:46.269Z,94773.00
2023-04-15T05:16:44.446Z,94775.00
2023-04-15T05:17:46.059Z,94773.00
2023-04-15T05:18:45.882Z,94779.00
2023-04-15T05:19:47.427Z,94775.00
2023-04-15T05:20:45.920Z,94779.00
2023-04-15T05:21:45.171Z,94779.00
2023-04-15T05:22:46.252Z,94779.00
2023-04-15T05:23:46.379Z,94779.00
2023-04-15T05:24:46.273Z,94781.00
2023-04-15T05:25:46.476Z,94781.00
2023-04-15T05:26:44.684Z,94779.00
2023-04-15T05:27:45.685Z,94783.00
2023-04-15T05:28:45.810Z,94783.00
2023-04-15T05:29:44.700Z,94781.00
2023-04-15T05:30:44.691Z,94783.00
2023-04-15T05:31:45.676Z,94785.00
2023-04-15T05:32:44.719Z,94785.00
2023-04-15T05:33:45.690Z,94785.00
2023-04-15T05:34:45.707Z,94791.00
2023-04-15T05:35:45.698Z,94789.00
2023-04-15T05:36:45.707Z,94793.00
2023-04-15T05:37:44.736Z,94793.00
2023-04-15T05:38:45.775Z,94793.00
2023-04-15T05:39:45.747Z,94791.00
2023-04-15T05:40:46.399Z,94793.00
2023-04-15T05:41:46.996Z,94791.00
2023-04-15T05:42:46.361Z,94793.00
2023-04-15T05:43:47.972Z,94791.00
2023-04-15T05:44:46.437Z,94789.00
2023-04-15T05:45:46.555Z,94789.00
2023-04-15T05:46:46.556Z,94787.00
2023-04-15T05:47:45.627Z,94785.00
2023-04-15T05:48:45.708Z,94787.00
2023-04-15T05:49:50.216Z,94787.00
2023-04-15T05:50:49.055Z,94787.00
2023-04-15T05:51:45.603Z,94787.00
2023-04-15T05:52:45.877Z,94789.00
2023-04-15T05:53:45.880Z,94791.00
2023-04-15T05:54:44.865Z,94795.00
2023-04-15T05:55:44.832Z,94791.00
2023-04-15T05:56:45.876Z,94795.00
2023-04-15T05:57:45.855Z,94793.00
2023-04-15T05:58:45.863Z,94793.00
2023-04-15T05:59:45.877Z,94793.00
2023-04-15T06:00:44.904Z,94797.00
2023-04-15T06:01:44.881Z,94795.00
2023-04-15T06:02:45.040Z,94793.00
2023-04-15T06:03:44.970Z,94795.00
2023-04-15T06:04:45.911Z,94795.00
2023-04-15T06:05:46.851Z,94797.00
2023-04-15T06:06:45.895Z,94798.00
2023-04-15T06:07:48.349Z,94798.00
2023-04-15T06:08:45.887Z,94800.00
2023-04-15T06:09:45.892Z,94800.00
2023-04-15T06:10:45.886Z,94802.00
2023-04-15T06:11:45.878Z,94800.00
2023-04-15T06:12:45.868Z,94802.00
2023-04-15T06:13:45.868Z,94802.00
2023-04-15T06:14:44.846Z,94802.00
2023-04-15T06:15:44.827Z,94802.00
2023-04-15T06:16:44.890Z,94802.00
2023-04-15T06:17:45.885Z,94802.00
2023-04-15T06:18:46.403Z,94798.00
2023-04-15T06:19:46.433Z,94798.00
2023-04-15T06:22:04.226Z,94802.00
2023-04-15T06:23:05.149Z,94802.00
2023-04-15T06:24:05.019Z,94804.00
2023-04-15T06:25:05.032Z,94804.00
2023-04-15T06:26:04.028Z,94806.00
2023-04-15T06:27:05.004Z,94806.00
2023-04-15T06:28:05.016Z,94804.00
2023-04-15T06:29:04.991Z,94802.00
2023-04-15T06:30:03.980Z,94802.00
2023-04-15T06:31:04.960Z,94802.00
2023-04-15T06:32:04.987Z,94800.00
2023-04-15T06:33:04.973Z,94798.00
2023-04-15T06:34:04.956Z,94798.00
2023-04-15T06:35:04.952Z,94798.00
2023-04-15T06:36:04.938Z,94800.00
2023-04-15T06:37:06.235Z,94798.00
2023-04-15T06:38:03.914Z,94800.00
2023-04-15T06:39:04.129Z,94802.00
2023-04-15T06:40:03.928Z,94802.00
2023-04-15T06:41:04.946Z,94802.00
2023-04-15T06:42:04.962Z,94806.00
2023-04-15T06:43:03.952Z,94804.00
2023-04-15T06:44:04.998Z,94808.00
2023-04-15T06:45:05.018Z,94806.00
2023-04-15T06:46:04.078Z,94804.00
2023-04-15T06:47:04.866Z,94804.00
2023-04-15T06:48:05.688Z,94806.00
2023-04-15T06:49:05.934Z,94806.00
2023-04-15T06:50:05.561Z,94808.00
2023-04-15T06:51:05.840Z,94810.00
2023-04-15T06:52:05.866Z,94808.00
2023-04-15T06:53:05.869Z,94810.00
2023-04-15T06:54:05.780Z,94810.00
2023-04-15T06:55:06.161Z,94812.00
2023-04-15T06:56:06.275Z,94812.00
2023-04-15T06:57:05.845Z,94812.00
2023-04-15T06:58:06.030Z,94808.00
2023-04-15T06:59:06.962Z,94808.00
2023-04-15T07:00:06.774Z,94806.00
2023-04-15T07:01:06.173Z,94806.00
2023-04-15T07:02:04.983Z,94804.00
2023-04-15T07:03:04.290Z,94802.00
2023-04-15T07:04:04.287Z,94800.00
2023-04-15T07:05:04.711Z,94800.00
2023-04-15T07:06:06.432Z,94798.00
2023-04-15T07:07:08.766Z,94797.00
2023-04-15T07:08:06.085Z,94797.00
2023-04-15T07:09:06.283Z,94798.00
2023-04-15T07:10:06.162Z,94802.00
2023-04-15T07:11:05.187Z,94798.00
2023-04-15T07:12:06.278Z,94800.00
2023-04-15T07:13:05.888Z,94804.00
2023-04-15T07:14:06.282Z,94800.00
2023-04-15T07:15:06.500Z,94800.00
2023-04-15T07:16:04.864Z,94802.00
2023-04-15T07:17:06.074Z,94804.00
2023-04-15T07:18:04.869Z,94802.00
2023-04-15T07:19:05.960Z,94804.00
2023-04-15T07:20:05.979Z,94808.00
2023-04-15T07:21:04.738Z,94804.00
2023-04-15T07:22:06.165Z,94804.00
2023-04-15T07:23:06.031Z,94810.00
2023-04-15T07:24:05.827Z,94812.00
2023-04-15T07:25:06.265Z,94810.00
2023-04-15T07:26:06.232Z,94812.00
2023-04-15T07:27:04.799Z,94814.00
2023-04-15T07:28:06.027Z,94814.00
2023-04-15T07:29:06.091Z,94814.00
2023-04-15T07:30:05.427Z,94812.00
2023-04-15T07:31:06.259Z,94818.00
2023-04-15T07:32:10.203Z,94814.00
2023-04-15T07:33:06.354Z,94816.00
2023-04-15T07:34:06.389Z,94814.00
2023-04-15T07:35:05.928Z,94816.00
2023-04-15T07:36:05.816Z,94816.00
2023-04-15T07:37:05.625Z,94818.00
2023-04-15T07:38:05.934Z,94814.00
2023-04-15T07:39:05.860Z,94816.00
2023-04-15T07:40:05.833Z,94816.00
2023-04-15T07:41:06.361Z,94814.00
2023-04-15T07:42:05.839Z,94816.00
2023-04-15T07:43:05.309Z,94814.00
2023-04-15T07:44:05.268Z,94814.00
2023-04-15T07:45:04.266Z,94816.00
2023-04-15T07:46:04.303Z,94816.00
2023-04-15T07:47:05.264Z,94816.00
2023-04-15T07:48:05.255Z,94818.00
2023-04-15T07:49:05.225Z,94818.00
2023-04-15T07:50:05.264Z,94822.00
2023-04-15T07:51:05.229Z,94822.00
2023-04-15T07:52:04.247Z,94822.00
2023-04-15T07:53:04.239Z,94822.00
2023-04-15T07:54:05.221Z,94820.00
2023-04-15T07:55:05.245Z,94822.00
2023-04-15T07:56:05.271Z,94822.00
2023-04-15T07:57:04.257Z,94822.00
2023-04-15T07:58:05.256Z,94820.00
2023-04-15T07:59:04.448Z,94822.00
2023-04-15T08:00:05.296Z,94822.00
2023-04-15T08:01:05.570Z,94822.00
2023-04-15T08:02:05.369Z,94822.00
2023-04-15T08:03:05.497Z,94822.00
2023-04-15T08:04:04.482Z,94824.00
2023-04-15T08:05:04.380Z,94824.00
2023-04-15T08:06:05.335Z,94824.00
2023-04-15T08:07:05.353Z,94824.00
2023-04-15T08:08:05.425Z,94828.00
2023-04-15T08:09:05.439Z,94826.00
2023-04-15T08:10:05.370Z,94828.00
2023-04-15T08:11:04.395Z,94828.00
2023-04-15T08:12:06.876Z,94828.00
2023-04-15T08:13:06.079Z,94828.00
2023-04-15T08:14:06.358Z,94830.00
2023-04-15T08:15:08.808Z,94828.00
2023-04-15T08:16:06.018Z,94830.00
2023-04-15T08:17:06.112Z,94828.00
2023-04-15T08:18:04.933Z,94828.00
2023-04-15T08:19:06.264Z,94830.00
2023-04-15T08:20:06.168Z,94828.00
2023-04-15T08:21:06.365Z,94830.00
2023-04-15T08:22:06.949Z,94830.00
2023-04-15T08:23:06.541Z,94832.00
2023-04-15T08:24:06.847Z,94830.00
2023-04-15T08:25:06.299Z,94828.00
2023-04-15T08:26:06.242Z,94828.00
2023-04-15T08:27:05.336Z,94834.00
2023-04-15T08:28:06.113Z,94832.00
2023-04-15T08:29:05.810Z,94832.00
2023-04-15T08:30:05.775Z,94838.00
2023-04-15T08:31:04.789Z,94836.00
2023-04-15T08:32:05.784Z,94838.00
2023-04-15T08:33:05.762Z,94844.00
2023-04-15T08:34:04.756Z,94842.00
2023-04-15T08:35:05.782Z,94838.00
2023-04-15T08:36:05.815Z,94844.00
2023-04-15T08:37:04.808Z,94838.00
2023-04-15T08:38:05.798Z,94838.00
2023-04-15T08:39:05.797Z,94842.00
2023-04-15T08:40:04.866Z,94842.00
2023-04-15T08:41:05.849Z,94838.00
2023-04-15T08:42:04.853Z,94844.00
2023-04-15T08:43:05.164Z,94840.00
2023-04-15T08:44:05.334Z,94847.00
2023-04-15T08:45:06.458Z,94845.00
2023-04-15T08:46:06.619Z,94845.00
2023-04-15T08:47:06.654Z,94847.00
2023-04-15T08:48:06.868Z,94849.00
2023-04-15T08:49:06.618Z,94849.00
2023-04-15T08:50:05.698Z,94845.00
2023-04-15T08:51:05.744Z,94847.00
2023-04-15T08:52:06.489Z,94853.00
2023-04-15T08:53:06.596Z,94849.00
2023-04-15T08:54:06.855Z,94855.00
2023-04-15T08:55:05.781Z,94857.00
2023-04-15T08:56:07.262Z,94853.00
2023-04-15T08:57:05.687Z,94853.00
2023-04-15T08:58:06.976Z,94853.00
2023-04-15T08:59:08.031Z,94853.00
2023-04-15T09:00:06.675Z,94857.00
2023-04-15T09:01:07.016Z,94851.00
2023-04-15T09:02:10.464Z,94861.00
2023-04-15T09:03:06.321Z,94859.00
2023-04-15T09:04:07.005Z,94861.00
2023-04-15T09:05:06.736Z,94855.00
2023-04-15T09:06:07.267Z,94857.00
2023-04-15T09:07:05.649Z,94859.00
2023-04-15T09:08:06.666Z,94853.00
2023-04-15T09:09:07.198Z,94857.00
2023-04-15T09:10:06.761Z,94857.00
2023-04-15T09:11:07.454Z,94857.00
2023-04-15T09:12:05.955Z,94857.00
2023-04-15T09:13:06.018Z,94855.00
2023-04-15T09:14:07.196Z,94857.00
2023-04-15T09:15:07.164Z,94859.00
2023-04-15T09:16:06.747Z,94855.00
2023-04-15T09:17:06.869Z,94853.00
2023-04-15T09:18:06.117Z,94857.00
2023-04-15T09:19:06.921Z,94857.00
2023-04-15T09:20:05.090Z,94861.00
2023-04-15T09:21:05.074Z,94855.00
2023-04-15T09:22:05.084Z,94855.00
2023-04-15T09:23:06.071Z,94855.00
2023-04-15T09:24:05.229Z,94863.00
2023-04-15T09:25:06.086Z,94857.00
2023-04-15T09:26:06.049Z,94855.00
2023-04-15T09:27:06.044Z,94857.00
2023-04-15T09:28:05.055Z,94859.00
2023-04-15T09:29:05.013Z,94853.00
2023-04-15T09:30:06.043Z,94863.00
2023-04-15T09:31:05.092Z,94861.00
2023-04-15T09:32:05.025Z,94863.00
2023-04-15T09:33:05.065Z,94867.00
2023-04-15T09:34:05.995Z,94861.00
2023-04-15T09:35:05.976Z,94871.00
2023-04-15T09:36:04.991Z,94865.00
2023-04-15T09:37:07.382Z,94871.00
2023-04-15T09:38:04.971Z,94873.00
2023-04-15T09:39:05.961Z,94875.00
2023-04-15T09:40:05.954Z,94875.00
2023-04-15T09:41:05.933Z,94877.00
2023-04-15T09:42:05.943Z,94881.00
2023-04-15T09:43:05.937Z,94883.00
2023-04-15T09:44:04.933Z,94890.00
2023-04-15T09:45:05.898Z,94892.00
2023-04-15T09:46:04.908Z,94892.00
2023-04-15T09:47:05.889Z,94890.00
2023-04-15T09:48:05.923Z,94894.00
2023-04-15T09:49:05.858Z,94890.00
2023-04-15T09:50:05.861Z,94883.00
2023-04-15T09:51:04.857Z,94890.00
2023-04-15T09:52:06.639Z,94890.00
2023-04-15T09:53:04.856Z,94881.00
2023-04-15T09:54:05.840Z,94883.00
2023-04-15T09:55:05.826Z,94881.00
2023-04-15T09:56:05.830Z,94879.00
2023-04-15T09:57:05.824Z,94877.00
2023-04-15T09:58:05.834Z,94877.00
2023-04-15T09:59:05.800Z,94877.00
2023-04-15T10:00:04.827Z,94879.00
2023-04-15T10:01:05.806Z,94877.00
2023-04-15T10:02:05.860Z,94879.00
2023-04-15T10:03:05.998Z,94881.00
2023-04-15T10:04:06.114Z,94877.00
2023-04-15T10:05:05.758Z,94875.00
2023-04-15T10:06:05.867Z,94877.00
2023-04-15T10:07:05.759Z,94879.00
2023-04-15T10:08:05.735Z,94873.00
2023-04-15T10:09:05.720Z,94873.00
2023-04-15T10:10:05.709Z,94873.00
2023-04-15T10:11:05.729Z,94875.00
2023-04-15T10:12:05.742Z,94873.00
2023-04-15T10:13:04.711Z,94873.00
2023-04-15T10:14:05.696Z,94871.00
2023-04-15T10:15:05.692Z,94871.00
2023-04-15T10:16:05.913Z,94871.00
2023-04-15T10:17:05.706Z,94875.00
2023-04-15T10:18:05.753Z,94875.00
2023-04-15T10:19:05.667Z,94877.00
2023-04-15T10:20:05.647Z,94879.00
2023-04-15T10:21:05.667Z,94883.00
2023-04-15T10:22:04.666Z,94883.00
2023-04-15T10:23:06.837Z,94892.00
2023-04-15T10:24:04.800Z,94894.00
2023-04-15T10:25:04.626Z,94896.00
2023-04-15T10:26:05.620Z,94896.00
2023-04-15T10:27:05.615Z,94900.00
2023-04-15T10:28:05.611Z,94898.00
2023-04-15T10:29:05.596Z,94900.00
2023-04-15T10:30:05.603Z,94900.00
2023-04-15T10:31:04.625Z,94904.00
2023-04-15T10:32:05.600Z,94904.00
2023-04-15T10:33:05.571Z,94906.00
2023-04-15T10:34:05.560Z,94906.00
2023-04-15T10:35:05.549Z,94906.00
2023-04-15T10:36:05.570Z,94902.00
2023-04-15T10:37:05.547Z,94902.00
2023-04-15T10:38:05.563Z,94902.00
2023-04-15T10:39:05.525Z,94906.00
2023-04-15T10:40:05.547Z,94900.00
2023-04-15T10:41:05.503Z,94900.00
2023-04-15T10:42:05.511Z,94902.00
2023-04-15T10:43:15.799Z,94902.00
2023-04-15T10:44:06.236Z,94900.00
2023-04-15T10:45:06.223Z,94900.00
2023-04-15T10:46:06.867Z,94904.00
2023-04-15T10:47:05.038Z,94908.00
2023-04-15T10:48:05.022Z,94910.00
2023-04-15T10:49:05.143Z,94910.00
2023-04-15T10:50:06.173Z,94914.00
2023-04-15T10:51:06.378Z,94916.00
2023-04-15T10:52:06.276Z,94916.00
2023-04-15T10:53:14.164Z,94916.00
2023-04-15T10:54:05.728Z,94916.00
2023-04-15T10:55:06.249Z,94912.00
2023-04-15T10:56:06.023Z,94912.00
2023-04-15T10:57:06.196Z,94912.00
2023-04-15T10:58:06.653Z,94916.00
2023-04-15T10:59:06.677Z,94916.00
2023-04-15T11:00:06.449Z,94924.00
2023-04-15T11:01:06.137Z,94922.00
2023-04-15T11:02:05.951Z,94926.00
2023-04-15T11:03:05.642Z,94926.00
2023-04-15T11:04:06.301Z,94924.00
2023-04-15T11:05:05.695Z,94924.00
2023-04-15T11:06:05.418Z,94924.00
2023-04-15T11:07:06.577Z,94924.00
2023-04-15T11:08:06.339Z,94922.00
2023-04-15T11:09:06.474Z,94918.00
2023-04-15T11:10:05.967Z,94918.00
2023-04-15T11:11:04.994Z,94918.00
2023-04-15T11:12:05.980Z,94922.00
2023-04-15T11:13:06.018Z,94924.00
2023-04-15T11:14:05.994Z,94926.00
2023-04-15T11:15:06.012Z,94928.00
2023-04-15T11:16:05.047Z,94928.00
2023-04-15T11:17:06.028Z,94930.00
2023-04-15T11:18:05.092Z,94928.00
2023-04-15T11:19:06.064Z,94928.00
2023-04-15T11:20:05.079Z,94928.00
2023-04-15T11:21:05.136Z,94926.00
2023-04-15T11:22:06.090Z,94926.00
2023-04-15T11:23:14.949Z,94924.00
2023-04-15T11:24:07.136Z,94928.00
2023-04-15T11:25:05.817Z,94928.00
2023-04-15T11:26:06.875Z,94932.00
2023-04-15T11:27:06.224Z,94930.00
2023-04-15T11:28:08.567Z,94932.00
2023-04-15T11:29:06.822Z,94930.00
2023-04-15T11:30:06.958Z,94930.00
2023-04-15T11:31:07.317Z,94930.00
2023-04-15T11:32:07.266Z,94932.00
2023-04-15T11:33:07.086Z,94930.00
2023-04-15T11:34:07.125Z,94932.00
2023-04-15T11:35:07.513Z,94928.00
2023-04-15T11:36:07.265Z,94932.00
2023-04-15T11:37:07.583Z,94932.00
2023-04-15T11:38:07.652Z,94936.00
2023-04-15T11:39:07.691Z,94936.00
2023-04-15T11:40:07.762Z,94938.00
2023-04-15T11:41:05.719Z,94942.00
2023-04-15T11:42:05.736Z,94942.00
2023-04-15T11:43:06.729Z,94942.00
2023-04-15T11:44:06.732Z,94940.00
2023-04-15T11:45:06.755Z,94942.00
2023-04-15T11:46:06.786Z,94942.00